createdAt,value
2019-01-14T00:01:54.509Z,100.00
2019-01-14T00:04:23.534Z,100.00
2019-01-14T00:06:49.369Z,100.00
2019-01-14T00:09:23.353Z,100.00
2019-01-14T00:11:46.354Z,100.00
2019-01-14T00:14:15.410Z,100.00
2019-01-14T00:16:41.226Z,100.00
2019-01-14T00:19:09.851Z,100.00
2019-01-14T00:21:35.938Z,100.00
2019-01-14T00:24:04.770Z,100.00
2019-01-14T00:26:30.920Z,100.00
2019-01-14T00:28:56.730Z,100.00
2019-01-14T00:31:22.568Z,100.00
2019-01-14T00:33:49.119Z,100.00
2019-01-14T00:36:17.698Z,100.00
2019-01-14T00:38:43.025Z,100.00
2019-01-14T00:41:08.837Z,100.00
2019-01-14T00:43:34.679Z,100.00
2019-01-14T00:46:03.606Z,100.00
2019-01-14T00:48:29.423Z,100.00
2019-01-14T00:50:58.623Z,100.00
2019-01-14T00:53:24.437Z,100.00
2019-01-14T00:55:53.461Z,100.00
2019-01-14T00:58:19.545Z,100.00
2019-01-14T01:00:48.440Z,100.00
2019-01-14T01:03:14.246Z,100.00
2019-01-14T01:05:40.096Z,100.00
2019-01-14T01:08:06.427Z,100.00
2019-01-14T01:10:32.507Z,100.00
2019-01-14T01:13:01.671Z,100.00
2019-01-14T01:15:27.769Z,100.00
2019-01-14T01:17:56.704Z,100.00
2019-01-14T01:20:22.768Z,100.00
2019-01-14T01:22:48.869Z,100.00
2019-01-14T01:25:14.917Z,100.00
2019-01-14T01:27:43.874Z,100.00
2019-01-14T01:30:12.491Z,100.00
2019-01-14T01:32:38.317Z,100.00
2019-01-14T01:35:06.874Z,100.00
2019-01-14T01:37:35.761Z,100.00
2019-01-14T01:40:03.551Z,100.00
2019-01-14T01:42:29.691Z,100.00
2019-01-14T01:44:55.493Z,100.00
2019-01-14T01:47:21.324Z,100.00
2019-01-14T01:49:47.169Z,100.00
2019-01-14T01:52:13.342Z,100.00
2019-01-14T01:54:39.224Z,100.00
2019-01-14T01:57:05.076Z,100.00
2019-01-14T01:59:35.194Z,100.00
2019-01-14T02:02:01.296Z,100.00
2019-01-14T02:04:29.955Z,100.00
2019-01-14T02:06:55.784Z,100.00
2019-01-14T02:09:24.621Z,100.00
2019-01-14T02:11:50.488Z,100.00
2019-01-14T02:14:20.033Z,100.00
2019-01-14T02:16:46.458Z,100.00
2019-01-14T02:19:12.266Z,100.00
2019-01-14T02:21:38.098Z,100.00
2019-01-14T02:24:04.202Z,100.00
2019-01-14T02:26:30.329Z,100.00
2019-01-14T02:28:56.430Z,100.00
2019-01-14T02:31:25.341Z,100.00
2019-01-14T02:33:51.180Z,100.00
2019-01-14T02:36:19.991Z,100.00
2019-01-14T02:38:45.823Z,100.00
2019-01-14T02:41:14.432Z,100.00
2019-01-14T02:43:40.311Z,100.00
2019-01-14T02:46:10.699Z,100.00
2019-01-14T02:48:36.523Z,100.00
2019-01-14T02:51:03.929Z,98.97
2019-01-14T02:53:30.046Z,99.53
2019-01-14T02:55:55.869Z,98.97
2019-01-14T02:58:22.014Z,98.45
2019-01-14T03:00:47.861Z,97.12
2019-01-14T03:03:16.625Z,97.27
2019-01-14T03:05:42.449Z,97.67
2019-01-14T03:08:11.141Z,98.17
2019-01-14T03:10:37.286Z,98.11
2019-01-14T03:13:05.916Z,98.24
2019-01-14T03:15:32.051Z,98.27
2019-01-14T03:18:00.640Z,97.71
2019-01-14T03:20:26.775Z,97.98
2019-01-14T03:22:55.655Z,98.10
2019-01-14T03:25:21.489Z,97.44
2019-01-14T03:27:50.113Z,97.10
2019-01-14T03:30:17.038Z,95.77
2019-01-14T03:32:42.896Z,96.23
2019-01-14T03:35:08.841Z,95.50
2019-01-14T03:37:34.647Z,95.10
2019-01-14T03:40:00.511Z,95.29
2019-01-14T03:42:26.601Z,95.31
2019-01-14T03:44:55.812Z,95.84
2019-01-14T03:47:21.914Z,96.04
2019-01-14T03:49:49.953Z,96.68
2019-01-14T03:52:15.767Z,97.23
2019-01-14T03:54:45.217Z,97.38
2019-01-14T03:57:11.100Z,97.83
2019-01-14T03:59:39.944Z,97.73
2019-01-14T04:02:06.035Z,98.06
2019-01-14T04:04:34.622Z,98.14
2019-01-14T04:07:00.472Z,97.93
2019-01-14T04:09:26.282Z,98.32
2019-01-14T04:11:52.089Z,98.33
2019-01-14T04:14:17.950Z,98.62
2019-01-14T04:16:46.521Z,97.85
2019-01-14T04:19:12.344Z,97.62
2019-01-14T04:21:40.987Z,97.61
2019-01-14T04:24:06.800Z,98.27
2019-01-14T04:26:35.347Z,97.96
2019-01-14T04:29:01.141Z,98.47
2019-01-14T04:31:33.163Z,98.47
2019-01-14T04:33:59.056Z,97.73
2019-01-14T04:36:24.838Z,98.07
2019-01-14T04:38:51.014Z,98.32
2019-01-14T04:41:21.764Z,97.55
2019-01-14T04:43:47.886Z,97.80
2019-01-14T04:46:14.046Z,97.52
2019-01-14T04:48:39.845Z,97.05
2019-01-14T04:51:05.684Z,97.11
2019-01-14T04:53:31.511Z,96.78
2019-01-14T04:55:57.318Z,96.79
2019-01-14T04:58:26.844Z,96.33
2019-01-14T05:00:52.721Z,95.43
2019-01-14T05:03:21.613Z,95.44
2019-01-14T05:05:47.431Z,95.97
2019-01-14T05:08:16.126Z,96.04
2019-01-14T05:10:41.941Z,95.42
2019-01-14T05:13:09.975Z,94.42
2019-01-14T05:15:37.020Z,94.55
2019-01-14T05:18:05.857Z,94.55
2019-01-14T05:20:31.694Z,94.30
2019-01-14T05:22:58.080Z,95.08
2019-01-14T05:25:24.455Z,94.24
2019-01-14T05:27:50.296Z,94.71
2019-01-14T05:30:19.340Z,94.12
2019-01-14T05:32:45.282Z,94.67
2019-01-14T05:35:11.756Z,95.01
2019-01-14T05:37:38.186Z,94.66
2019-01-14T05:40:13.075Z,94.58
2019-01-14T05:42:38.922Z,95.34
2019-01-14T05:45:06.454Z,94.08
2019-01-14T05:47:32.314Z,93.97
2019-01-14T05:49:58.140Z,94.04
2019-01-14T05:52:23.991Z,94.18
2019-01-14T05:54:53.410Z,94.30
2019-01-14T05:57:19.264Z,94.04
2019-01-14T05:59:45.348Z,94.50
2019-01-14T06:02:11.206Z,94.49
2019-01-14T06:04:37.034Z,94.70
2019-01-14T06:07:02.895Z,94.48
2019-01-14T06:09:28.701Z,94.92
2019-01-14T06:11:57.783Z,95.61
2019-01-14T06:14:23.626Z,95.72
2019-01-14T06:16:52.458Z,95.80
2019-01-14T06:19:18.263Z,95.40
2019-01-14T06:21:46.873Z,95.99
2019-01-14T06:24:12.990Z,95.52
2019-01-14T06:26:42.364Z,95.27
2019-01-14T06:29:08.211Z,95.35
2019-01-14T06:31:37.091Z,95.17
2019-01-14T06:34:03.019Z,95.50
2019-01-14T06:36:28.879Z,94.98
2019-01-14T06:38:54.993Z,95.15
2019-01-14T06:41:20.886Z,95.17
2019-01-14T06:43:49.967Z,94.10
2019-01-14T06:46:16.064Z,94.33
2019-01-14T06:48:42.785Z,94.03
2019-01-14T06:51:08.665Z,93.83
2019-01-14T06:53:43.158Z,93.72
2019-01-14T06:56:08.999Z,94.42
2019-01-14T06:58:35.166Z,94.04
2019-01-14T07:01:01.294Z,93.65
2019-01-14T07:03:27.385Z,94.06
2019-01-14T07:05:53.216Z,93.22
2019-01-14T07:08:22.078Z,92.36
2019-01-14T07:10:47.876Z,92.58
2019-01-14T07:13:13.723Z,92.68
2019-01-14T07:15:39.537Z,92.45
2019-01-14T07:18:05.407Z,91.87
2019-01-14T07:20:33.031Z,92.06
2019-01-14T07:22:58.949Z,92.32
2019-01-14T07:25:29.730Z,91.79
2019-01-14T07:27:55.490Z,92.09
2019-01-14T07:30:24.075Z,92.36
2019-01-14T07:32:49.933Z,92.47
2019-01-14T07:35:18.799Z,92.39
2019-01-14T07:37:45.346Z,92.27
2019-01-14T07:40:16.011Z,92.31
2019-01-14T07:42:42.048Z,92.27
2019-01-14T07:45:10.558Z,92.11
2019-01-14T07:47:36.393Z,92.35
2019-01-14T07:50:05.134Z,92.73
2019-01-14T07:52:30.956Z,92.90
2019-01-14T07:54:56.803Z,93.10
2019-01-14T07:57:22.907Z,93.60
2019-01-14T07:59:49.139Z,93.77
2019-01-14T08:02:15.088Z,93.50
2019-01-14T08:04:41.217Z,93.63
2019-01-14T08:07:10.030Z,93.71
2019-01-14T08:09:35.885Z,92.62
2019-01-14T08:12:04.622Z,92.52
2019-01-14T08:14:30.598Z,91.93
2019-01-14T08:16:59.444Z,91.81
2019-01-14T08:19:25.273Z,92.30
2019-01-14T08:21:53.857Z,92.34
2019-01-14T08:24:19.699Z,92.05
2019-01-14T08:26:45.837Z,91.63
2019-01-14T08:29:11.668Z,90.97
2019-01-14T08:31:37.523Z,91.28
2019-01-14T08:34:03.685Z,91.45
2019-01-14T08:36:29.792Z,91.05
2019-01-14T08:38:57.816Z,90.48
2019-01-14T08:41:25.061Z,89.17
2019-01-14T08:43:56.178Z,89.84
2019-01-14T08:46:22.117Z,90.12
2019-01-14T08:48:48.915Z,89.46
2019-01-14T08:51:14.799Z,89.61
2019-01-14T08:53:43.013Z,90.04
2019-01-14T08:56:09.102Z,91.18
2019-01-14T08:58:38.224Z,91.47
2019-01-14T09:01:04.021Z,91.17
2019-01-14T09:03:29.863Z,91.38
2019-01-14T09:05:55.665Z,91.63
2019-01-14T09:08:28.505Z,91.07
2019-01-14T09:10:49.504Z,90.43
2019-01-14T09:13:15.340Z,90.68
2019-01-14T09:15:44.204Z,90.03
2019-01-14T09:18:10.322Z,89.76
2019-01-14T09:20:39.213Z,89.91
2019-01-14T09:23:05.391Z,89.18
2019-01-14T09:25:32.876Z,90.07
2019-01-14T09:27:58.723Z,89.77
2019-01-14T09:30:29.683Z,89.98
2019-01-14T09:32:55.529Z,89.82
2019-01-14T09:35:24.233Z,90.37
2019-01-14T09:37:50.074Z,90.56
2019-01-14T09:40:18.111Z,90.06
2019-01-14T09:42:43.944Z,90.43
2019-01-14T09:45:09.905Z,90.24
2019-01-14T09:47:36.134Z,90.31
2019-01-14T09:50:02.459Z,88.91
2019-01-14T09:52:28.506Z,90.91
2019-01-14T09:54:54.718Z,90.31
2019-01-14T09:57:23.503Z,90.82
2019-01-14T09:59:49.350Z,91.26
2019-01-14T10:02:18.228Z,91.33
2019-01-14T10:04:44.365Z,90.97
2019-01-14T10:07:13.303Z,91.58
2019-01-14T10:09:39.129Z,91.47
2019-01-14T10:12:07.871Z,91.42
2019-01-14T10:14:33.674Z,92.08
2019-01-14T10:16:59.843Z,92.76
2019-01-14T10:19:25.939Z,93.60
2019-01-14T10:21:51.757Z,94.38
2019-01-14T10:24:20.640Z,93.75
2019-01-14T10:26:46.449Z,92.67
2019-01-14T10:29:15.325Z,92.91
2019-01-14T10:31:41.429Z,93.07
2019-01-14T10:34:08.907Z,92.32
2019-01-14T10:36:35.036Z,92.56
2019-01-14T10:39:05.518Z,92.75
2019-01-14T10:41:35.487Z,91.26
2019-01-14T10:44:01.575Z,90.63
2019-01-14T10:46:27.394Z,90.87
2019-01-14T10:48:53.521Z,90.79
2019-01-14T10:51:19.434Z,91.25
2019-01-14T10:53:45.238Z,90.89
2019-01-14T10:56:11.090Z,92.10
2019-01-14T10:58:37.048Z,92.05
2019-01-14T11:01:06.213Z,91.66
2019-01-14T11:03:32.046Z,91.72
2019-01-14T11:05:59.185Z,92.37
2019-01-14T11:08:25.045Z,92.26
2019-01-14T11:10:53.630Z,92.02
2019-01-14T11:13:19.726Z,93.44
2019-01-14T11:15:50.428Z,92.88
2019-01-14T11:18:16.267Z,94.04
2019-01-14T11:20:43.617Z,93.77
2019-01-14T11:23:09.428Z,92.15
2019-01-14T11:25:40.353Z,92.00
2019-01-14T11:28:06.332Z,90.90
2019-01-14T11:30:32.580Z,90.66
2019-01-14T11:32:58.497Z,88.46
2019-01-14T11:35:24.810Z,89.33
2019-01-14T11:37:50.763Z,88.90
2019-01-14T11:40:41.460Z,89.74
2019-01-14T11:43:07.264Z,90.26
2019-01-14T11:45:33.122Z,89.88
2019-01-14T11:47:59.217Z,88.81
2019-01-14T11:50:25.314Z,88.32
2019-01-14T11:52:51.534Z,87.58
2019-01-14T11:55:17.348Z,87.92
2019-01-14T11:57:43.515Z,88.57
2019-01-14T12:00:13.281Z,87.96
2019-01-14T12:02:39.645Z,88.12
2019-01-14T12:05:07.629Z,88.65
2019-01-14T12:07:33.478Z,88.12
2019-01-14T12:09:59.308Z,88.26
2019-01-14T12:12:25.160Z,88.77
2019-01-14T12:14:50.985Z,89.25
2019-01-14T12:17:17.128Z,89.69
2019-01-14T12:19:42.944Z,90.08
2019-01-14T12:22:08.838Z,89.70
2019-01-14T12:24:34.813Z,89.14
2019-01-14T12:27:00.654Z,88.82
2019-01-14T12:29:26.460Z,87.52
2019-01-14T12:31:52.297Z,88.43
2019-01-14T12:34:18.405Z,88.92
2019-01-14T12:36:44.230Z,86.84
2019-01-14T12:39:10.034Z,85.19
2019-01-14T12:41:35.884Z,83.28
2019-01-14T12:44:01.826Z,80.71
2019-01-14T12:46:27.656Z,79.33
2019-01-14T12:48:53.503Z,80.41
2019-01-14T12:51:22.393Z,79.84
2019-01-14T12:53:48.259Z,78.50
2019-01-14T12:56:17.185Z,78.10
2019-01-14T12:58:43.027Z,77.32
2019-01-14T13:01:11.662Z,76.18
2019-01-14T13:03:37.765Z,78.45
2019-01-14T13:06:06.588Z,79.17
2019-01-14T13:08:32.396Z,77.84
2019-01-14T13:11:01.128Z,80.96
2019-01-14T13:13:26.945Z,83.36
2019-01-14T13:15:54.261Z,89.30
2019-01-14T13:18:20.348Z,88.11
2019-01-14T13:20:46.190Z,88.60
2019-01-14T13:23:12.310Z,92.25
2019-01-14T13:25:38.148Z,93.86
2019-01-14T13:28:06.977Z,94.78
2019-01-14T13:30:32.929Z,95.89
2019-01-14T13:33:02.204Z,96.97
2019-01-14T13:35:28.120Z,97.27
2019-01-14T13:37:56.989Z,96.80
2019-01-14T13:40:22.931Z,96.89
2019-01-14T13:42:51.934Z,97.65
2019-01-14T13:45:19.951Z,97.72
2019-01-14T13:47:55.363Z,98.26
2019-01-14T13:50:24.617Z,97.89
2019-01-14T13:52:50.756Z,97.86
2019-01-14T13:55:17.262Z,97.86
2019-01-14T13:57:43.227Z,98.17
2019-01-14T14:00:15.009Z,98.20
2019-01-14T14:02:41.114Z,98.28
2019-01-14T14:05:06.950Z,99.32
2019-01-14T14:07:33.083Z,100.00
2019-01-14T14:09:59.301Z,99.93
2019-01-14T14:12:25.132Z,99.45
2019-01-14T14:14:51.096Z,99.37
2019-01-14T14:17:17.258Z,98.25
2019-01-14T14:19:43.060Z,98.17
2019-01-14T14:22:11.734Z,97.37
2019-01-14T14:24:36.662Z,97.76
2019-01-14T14:27:02.941Z,97.25
2019-01-14T14:29:28.773Z,97.82
2019-01-14T14:31:54.839Z,97.91
2019-01-14T14:34:20.701Z,98.05
2019-01-14T14:36:46.530Z,97.81
2019-01-14T14:39:12.674Z,96.44
2019-01-14T14:41:38.810Z,95.36
2019-01-14T14:44:04.672Z,95.29
2019-01-14T14:46:33.520Z,95.15
2019-01-14T14:48:59.387Z,94.71
2019-01-14T14:51:28.019Z,95.18
2019-01-14T14:53:54.229Z,96.07
2019-01-14T14:56:23.167Z,96.05
2019-01-14T14:58:49.010Z,96.95
2019-01-14T15:01:18.234Z,97.65
2019-01-14T15:03:44.103Z,97.29
2019-01-14T15:06:09.911Z,97.88
2019-01-14T15:08:35.736Z,98.15
2019-01-14T15:11:01.567Z,97.92
2019-01-14T15:13:27.388Z,97.89
2019-01-14T15:15:53.454Z,96.94
2019-01-14T15:18:22.424Z,96.36
2019-01-14T15:20:48.481Z,96.84
2019-01-14T15:23:17.654Z,96.86
2019-01-14T15:25:43.472Z,96.66
2019-01-14T15:28:12.503Z,97.16
2019-01-14T15:30:38.427Z,97.42
2019-01-14T15:33:07.291Z,97.85
2019-01-14T15:35:33.145Z,98.05
2019-01-14T15:38:01.727Z,98.12
2019-01-14T15:40:27.693Z,97.95
2019-01-14T15:42:56.907Z,97.58
2019-01-14T15:45:23.050Z,97.76
2019-01-14T15:47:48.870Z,98.13
2019-01-14T15:50:14.817Z,98.06
2019-01-14T15:52:40.874Z,98.29
2019-01-14T15:55:18.569Z,98.52
2019-01-14T15:57:44.671Z,98.74
2019-01-14T16:00:15.355Z,99.07
2019-01-14T16:02:41.240Z,99.31
2019-01-14T16:05:07.156Z,99.50
2019-01-14T16:07:33.030Z,99.91
2019-01-14T16:09:58.843Z,100.00
2019-01-14T16:12:24.977Z,100.00
2019-01-14T16:14:50.926Z,100.00
2019-01-14T16:17:17.095Z,99.81
2019-01-14T16:19:43.220Z,99.46
2019-01-14T16:22:09.301Z,99.96
2019-01-14T16:24:35.399Z,99.93
2019-01-14T16:27:02.092Z,100.00
2019-01-14T16:29:28.015Z,99.67
2019-01-14T16:31:53.809Z,99.39
2019-01-14T16:34:19.676Z,98.91
2019-01-14T16:36:48.515Z,98.90
2019-01-14T16:39:14.589Z,99.12
2019-01-14T16:41:41.733Z,99.53
2019-01-14T16:44:07.561Z,99.98
2019-01-14T16:46:36.591Z,100.00
2019-01-14T16:49:02.620Z,100.00
2019-01-14T16:51:31.820Z,100.00
2019-01-14T16:53:57.626Z,100.00
2019-01-14T16:56:26.489Z,100.00
2019-01-14T16:58:52.297Z,100.00
2019-01-14T17:01:18.153Z,99.83
2019-01-14T17:03:44.029Z,99.83
2019-01-14T17:06:09.966Z,100.00
2019-01-14T17:08:38.947Z,100.00
2019-01-14T17:11:04.800Z,100.00
2019-01-14T17:13:33.646Z,99.76
2019-01-14T17:15:59.488Z,99.01
2019-01-14T17:18:28.057Z,98.82
2019-01-14T17:20:54.048Z,98.78
2019-01-14T17:23:23.321Z,98.54
2019-01-14T17:25:49.413Z,98.46
2019-01-14T17:28:17.159Z,98.23
2019-01-14T17:30:42.980Z,98.21
2019-01-14T17:33:13.737Z,98.54
2019-01-14T17:35:39.663Z,98.09
2019-01-14T17:38:05.773Z,98.34
2019-01-14T17:40:32.734Z,98.43
2019-01-14T17:42:58.707Z,98.41
2019-01-14T17:45:24.517Z,98.67
2019-01-14T17:47:50.363Z,98.59
2019-01-14T17:50:19.254Z,98.95
2019-01-14T17:52:45.221Z,99.28
2019-01-14T17:55:14.184Z,99.23
2019-01-14T17:57:40.294Z,98.98
2019-01-14T18:00:12.986Z,98.97
2019-01-14T18:02:38.917Z,98.87
2019-01-14T18:05:05.840Z,98.67
2019-01-14T18:07:32.422Z,98.60
2019-01-14T18:09:58.578Z,98.85
2019-01-14T18:12:24.392Z,99.08
2019-01-14T18:14:50.210Z,98.68
2019-01-14T18:17:16.035Z,99.40
2019-01-14T18:19:42.121Z,99.58
2019-01-14T18:22:11.044Z,99.08
2019-01-14T18:24:37.182Z,98.46
2019-01-14T18:27:03.328Z,98.54
2019-01-14T18:29:29.407Z,98.16
2019-01-14T18:31:58.820Z,97.58
2019-01-14T18:34:24.633Z,97.52
2019-01-14T18:36:53.305Z,97.13
2019-01-14T18:39:19.154Z,97.06
2019-01-14T18:41:47.313Z,97.39
2019-01-14T18:44:13.168Z,97.54
2019-01-14T18:46:42.338Z,97.30
2019-01-14T18:49:08.256Z,97.15
2019-01-14T18:51:34.162Z,97.30
2019-01-14T18:53:59.991Z,97.42
2019-01-14T18:56:25.839Z,97.22
2019-01-14T18:58:54.669Z,97.57
2019-01-14T19:01:20.788Z,97.77
2019-01-14T19:03:49.349Z,97.87
2019-01-14T19:06:15.213Z,98.01
2019-01-14T19:08:43.789Z,98.29
2019-01-14T19:11:09.657Z,98.14
2019-01-14T19:13:38.277Z,98.32
2019-01-14T19:16:04.244Z,98.43
2019-01-14T19:18:33.080Z,98.39
2019-01-14T19:20:59.041Z,98.14
2019-01-14T19:23:27.860Z,97.79
2019-01-14T19:25:53.720Z,96.46
2019-01-14T19:28:19.520Z,96.48
2019-01-14T19:30:45.352Z,96.49
2019-01-14T19:33:11.214Z,96.31
2019-01-14T19:35:40.487Z,95.96
2019-01-14T19:38:06.586Z,96.78
2019-01-14T19:40:33.748Z,96.50
2019-01-14T19:42:59.635Z,96.75
2019-01-14T19:45:29.385Z,95.99
2019-01-14T19:47:55.317Z,96.19
2019-01-14T19:50:24.196Z,95.74
2019-01-14T19:52:50.331Z,95.46
2019-01-14T19:55:19.167Z,95.43
2019-01-14T19:57:45.242Z,96.11
2019-01-14T20:00:21.225Z,95.71
2019-01-14T20:02:47.289Z,95.59
2019-01-14T20:05:13.223Z,96.03
2019-01-14T20:07:39.025Z,95.97
2019-01-14T20:10:08.481Z,95.91
2019-01-14T20:12:34.316Z,95.97
2019-01-14T20:15:00.190Z,95.68
2019-01-14T20:17:26.269Z,95.99
2019-01-14T20:19:52.116Z,96.12
2019-01-14T20:22:18.230Z,96.52
2019-01-14T20:24:44.063Z,96.12
2019-01-14T20:27:09.891Z,96.18
2019-01-14T20:29:35.770Z,96.22
2019-01-14T20:32:04.600Z,96.38
2019-01-14T20:34:30.714Z,96.30
2019-01-14T20:36:57.849Z,96.25
2019-01-14T20:39:23.964Z,95.54
2019-01-14T20:41:50.131Z,95.04
2019-01-14T20:44:15.938Z,95.92
2019-01-14T20:46:42.068Z,96.15
2019-01-14T20:49:11.049Z,96.18
2019-01-14T20:51:37.132Z,96.25
2019-01-14T20:54:04.505Z,96.39
2019-01-14T20:56:30.316Z,96.52
2019-01-14T20:58:59.223Z,96.32
2019-01-14T21:01:25.050Z,96.32
2019-01-14T21:03:56.114Z,96.31
2019-01-14T21:06:22.504Z,96.32
2019-01-14T21:08:48.362Z,96.67
2019-01-14T21:11:14.214Z,96.63
2019-01-14T21:13:42.940Z,96.51
2019-01-14T21:16:08.809Z,96.24
2019-01-14T21:18:34.647Z,96.74
2019-01-14T21:21:00.480Z,96.77
2019-01-14T21:23:26.328Z,96.58
2019-01-14T21:25:55.491Z,95.88
2019-01-14T21:28:21.308Z,95.63
2019-01-14T21:30:50.066Z,95.74
2019-01-14T21:33:16.224Z,95.93
2019-01-14T21:35:45.177Z,95.99
2019-01-14T21:38:11.299Z,96.47
2019-01-14T21:40:40.575Z,96.77
2019-01-14T21:43:06.376Z,96.63
2019-01-14T21:45:35.598Z,97.29
2019-01-14T21:48:01.460Z,97.39
2019-01-14T21:50:29.304Z,97.53
2019-01-14T21:52:55.484Z,97.34
2019-01-14T21:55:21.605Z,96.90
2019-01-14T21:57:47.731Z,97.07
2019-01-14T22:00:18.439Z,96.76
2019-01-14T22:02:44.493Z,96.74
2019-01-14T22:05:10.448Z,96.73
2019-01-14T22:07:36.323Z,96.79
2019-01-14T22:10:05.970Z,96.42
2019-01-14T22:12:31.909Z,96.51
2019-01-14T22:14:57.986Z,96.44
2019-01-14T22:17:26.869Z,96.46
2019-01-14T22:19:52.692Z,96.37
2019-01-14T22:22:21.634Z,96.18
2019-01-14T22:24:47.451Z,96.08
2019-01-14T22:27:16.578Z,96.16
2019-01-14T22:29:42.738Z,96.04
2019-01-14T22:32:08.578Z,96.04
2019-01-14T22:34:34.434Z,96.14
2019-01-14T22:37:00.566Z,96.13
2019-01-14T22:39:26.397Z,96.72
2019-01-14T22:41:52.262Z,96.71
2019-01-14T22:44:21.528Z,97.15
2019-01-14T22:46:47.335Z,97.33
2019-01-14T22:49:16.234Z,97.35
2019-01-14T22:51:42.325Z,97.48
2019-01-14T22:54:09.981Z,97.39
2019-01-14T22:56:35.843Z,97.66
2019-01-14T22:59:04.553Z,97.71
2019-01-14T23:01:32.267Z,97.86
2019-01-14T23:04:00.015Z,97.90
2019-01-14T23:06:25.816Z,98.04
2019-01-14T23:08:51.665Z,98.32
2019-01-14T23:11:17.480Z,98.28
2019-01-14T23:13:43.357Z,98.45
2019-01-14T23:16:12.454Z,98.44
2019-01-14T23:18:38.290Z,98.35
2019-01-14T23:21:05.826Z,98.39
2019-01-14T23:23:31.661Z,98.05
2019-01-14T23:26:02.277Z,97.98
2019-01-14T23:28:28.178Z,97.96
2019-01-14T23:30:55.327Z,97.41
2019-01-14T23:33:21.173Z,96.96
2019-01-14T23:35:50.272Z,96.53
2019-01-14T23:38:16.395Z,95.87
2019-01-14T23:40:45.142Z,95.61
2019-01-14T23:43:11.289Z,95.91
2019-01-14T23:45:37.103Z,95.72
2019-01-14T23:48:03.041Z,95.83
2019-01-14T23:50:28.858Z,95.87
2019-01-14T23:52:57.812Z,95.82
2019-01-14T23:55:23.644Z,95.30
2019-01-14T23:57:52.725Z,95.57
